EGS weather

Egilsstaðir Airport
Egilsstaðir, Eastern Region, Iceland

Public forecast

Using degrees Celsius for public forecast. Weather courtesy of forecast.io.

Current aviation weather report (METAR) for Egilsstaðir Airport

Retrieved 2019/10/18 10:00 UTC (27 minutes ago):

BIEG 181000Z 02006KT 9999 BKN035 BKN045 02/M01 Q1018 RMK WIND GAGNHEIDI 04023KT

Aviation forecast (TAF) for Egilsstaðir Airport

Retrieved 2019/10/18 09:33 UTC (54 minutes ago):

TAF BIEG 180729Z 1809/1909 01012KT 9999 -SHRA FEW015 BKN025 TX04/1815Z TNM05/1906Z BECMG 1812/1814 NSW FEW030 BECMG 1818/1820 17006KT CAVOK